Time;durP1;ratioP1;P1;durP2;ratioP2;P2;SDS_P1;SDS_P2;PMS_P1;PMS_P2;Temp;Humidity;BMP_temperature;BMP_pressure;BME280_temperature;BME280_humidity;BME280_pressure;Samples;Min_cycle;Max_cycle;Signal;HPM_P1;HPM_P2
2021/09/08 00:00:48;;;;;;;;;;;;;;;20.22;100.00;99475.44;5100618;28;19976;-62
2021/09/08 00:03:14;;;;;;;;;;;;;;;19.97;100.00;99474.38;5102114;28;19916;-63
2021/09/08 00:05:39;;;;;;;;;;;;;;;20.41;100.00;99475.94;5100255;28;19916;-64
2021/09/08 00:08:05;;;;;;;;;;;;;;;20.42;100.00;99472.38;5101502;28;20423;-61
2021/09/08 00:10:30;;;;;;;;;;;;;;;20.53;100.00;99465.63;5100509;28;19916;-60
2021/09/08 00:12:55;;;;;;;;;;;;;;;20.43;100.00;99465.34;5101252;28;19958;-62
2021/09/08 00:15:21;;;;;;;;;;;;;;;20.33;100.00;99462.50;5082954;28;19915;-61
2021/09/08 00:17:46;;;;;;;;;;;;;;;20.34;100.00;99463.34;5101466;28;19927;-64
2021/09/08 00:20:12;;;;;;;;;;;;;;;20.37;100.00;99457.94;5083447;28;19934;-63
2021/09/08 00:22:38;;;;;;;;;;;;;;;20.23;100.00;99456.19;5102014;28;19916;-60
2021/09/08 00:25:04;;;;;;;;;;;;;;;20.06;100.00;99452.03;5099596;28;19919;-62
2021/09/08 00:27:29;;;;;;;;;;;;;;;20.03;100.00;99454.88;5081580;28;19923;-63
2021/09/08 00:29:55;;;;;;;;;;;;;;;19.92;100.00;99447.69;5099157;28;19924;-63
2021/09/08 00:32:20;;;;;;;;;;;;;;;19.99;100.00;99451.59;5099819;28;19923;-60
2021/09/08 00:34:45;;;;;;;;;;;;;;;20.17;100.00;99451.38;5100275;28;19942;-60
2021/09/08 00:37:11;;;;;;;;;;;;;;;20.29;100.00;99453.19;5099090;28;19920;-64
2021/09/08 00:39:36;;;;;;;;;;;;;;;20.23;100.00;99448.34;5102898;28;20017;-61
2021/09/08 00:42:09;;;;;;;;;;;;;;;20.03;100.00;99445.25;5102952;28;19977;-60
2021/09/08 00:44:34;;;;;;;;;;;;;;;19.74;100.00;99448.84;5099336;28;19920;-60
2021/09/08 00:46:59;;;;;;;;;;;;;;;19.72;100.00;99446.34;5101260;28;20007;-62
2021/09/08 00:49:24;;;;;;;;;;;;;;;19.63;100.00;99447.72;5101947;28;19923;-63
2021/09/08 00:51:50;;;;;;;;;;;;;;;19.80;100.00;99438.03;5082133;28;19924;-63
2021/09/08 00:54:15;;;;;;;;;;;;;;;19.96;100.00;99438.72;5080351;28;19916;-62
2021/09/08 00:56:42;;;;;;;;;;;;;;;19.58;100.00;99436.72;5100229;28;19919;-62
2021/09/08 00:59:08;;;;;;;;;;;;;;;18.70;100.00;99445.50;5100337;28;20352;-60
2021/09/08 01:01:33;;;;;;;;;;;;;;;18.51;100.00;99446.56;5080415;28;19915;-62
2021/09/08 01:03:58;;;;;;;;;;;;;;;18.83;100.00;99443.03;5099926;28;20033;-62
2021/09/08 01:06:24;;;;;;;;;;;;;;;19.19;100.00;99447.84;5100364;28;20050;-63
2021/09/08 01:08:49;;;;;;;;;;;;;;;19.44;100.00;99434.13;5082876;28;19969;-62
2021/09/08 01:11:15;;;;;;;;;;;;;;;19.60;100.00;99437.47;5099790;28;19987;-64
2021/09/08 01:13:40;;;;;;;;;;;;;;;19.73;100.00;99434.97;5099317;28;19920;-62
2021/09/08 01:16:05;;;;;;;;;;;;;;;19.78;100.00;99435.50;5098155;28;20245;-63
2021/09/08 01:18:31;;;;;;;;;;;;;;;19.79;100.00;99436.34;5100649;28;19912;-62
2021/09/08 01:20:57;;;;;;;;;;;;;;;19.85;100.00;99428.13;5099039;28;19948;-62
2021/09/08 01:23:22;;;;;;;;;;;;;;;19.82;100.00;99426.53;5077123;28;19919;-62
2021/09/08 01:25:47;;;;;;;;;;;;;;;19.38;100.00;99426.66;5099872;28;19919;-63
2021/09/08 01:28:13;;;;;;;;;;;;;;;19.69;100.00;99435.25;5101079;28;19916;-63
2021/09/08 01:30:41;;;;;;;;;;;;;;;19.61;100.00;99433.06;5098272;28;19934;-63
2021/09/08 01:33:13;;;;;;;;;;;;;;;19.43;100.00;99428.06;5098834;28;19931;-62
2021/09/08 01:35:39;;;;;;;;;;;;;;;19.40;100.00;99422.19;5098979;28;20420;-60
2021/09/08 01:38:04;;;;;;;;;;;;;;;19.36;100.00;99418.94;5101229;28;19920;-62
2021/09/08 01:40:29;;;;;;;;;;;;;;;19.47;100.00;99418.25;5078294;28;19916;-62
2021/09/08 01:42:55;;;;;;;;;;;;;;;19.37;100.00;99419.78;5081062;28;19919;-63
2021/09/08 01:45:20;;;;;;;;;;;;;;;19.15;100.00;99420.22;5084263;28;20432;-60
2021/09/08 01:47:46;;;;;;;;;;;;;;;18.88;100.00;99420.94;5086669;28;19916;-60
2021/09/08 01:50:11;;;;;;;;;;;;;;;17.80;100.00;99423.59;5103696;28;20350;-61
2021/09/08 01:52:40;;;;;;;;;;;;;;;18.07;100.00;99415.22;5101259;28;19927;-62
2021/09/08 01:55:06;;;;;;;;;;;;;;;18.31;100.00;99424.22;5099143;28;19923;-62
2021/09/08 01:57:31;;;;;;;;;;;;;;;18.79;100.00;99414.53;5099531;28;19915;-64
2021/09/08 01:59:57;;;;;;;;;;;;;;;19.00;100.00;99416.78;5080697;28;19946;-61
2021/09/08 02:02:22;;;;;;;;;;;;;;;19.01;100.00;99415.84;5096961;28;19922;-63
2021/09/08 02:04:47;;;;;;;;;;;;;;;18.96;100.00;99415.28;5098582;28;20004;-63
2021/09/08 02:07:12;;;;;;;;;;;;;;;18.75;100.00;99413.00;5099513;28;19922;-63
2021/09/08 02:09:38;;;;;;;;;;;;;;;18.67;100.00;99415.22;5098097;28;20198;-63
2021/09/08 02:12:03;;;;;;;;;;;;;;;18.44;100.00;99413.09;5098336;28;19915;-62
2021/09/08 02:14:29;;;;;;;;;;;;;;;18.39;100.00;99411.59;5095155;28;19923;-62
2021/09/08 02:16:54;;;;;;;;;;;;;;;18.79;100.00;99409.31;5098436;28;19926;-62
2021/09/08 02:19:19;;;;;;;;;;;;;;;18.67;100.00;99403.94;5096602;28;19926;-62
2021/09/08 02:21:45;;;;;;;;;;;;;;;18.79;100.00;99404.09;5096107;28;19916;-61
2021/09/08 02:24:10;;;;;;;;;;;;;;;18.87;100.00;99405.41;5096394;28;19923;-60
2021/09/08 02:26:35;;;;;;;;;;;;;;;18.14;100.00;99411.34;5099593;28;19930;-61
2021/09/08 02:29:01;;;;;;;;;;;;;;;18.52;100.00;99405.66;5095712;28;19960;-60
2021/09/08 02:31:26;;;;;;;;;;;;;;;18.60;100.00;99403.47;5078028;28;19919;-61
2021/09/08 02:33:51;;;;;;;;;;;;;;;18.69;100.00;99397.69;5077236;28;20475;-59
2021/09/08 02:36:20;;;;;;;;;;;;;;;18.71;100.00;99403.66;5079870;28;19981;-63
2021/09/08 02:38:45;;;;;;;;;;;;;;;18.54;100.00;99393.38;5083962;28;19926;-63
2021/09/08 02:41:10;;;;;;;;;;;;;;;18.50;100.00;99390.13;5100134;28;19919;-63
2021/09/08 02:43:36;;;;;;;;;;;;;;;18.41;100.00;99388.06;5079681;28;19923;-63
2021/09/08 02:46:04;;;;;;;;;;;;;;;18.35;100.00;99388.41;5095991;28;20369;-63
2021/09/08 02:48:30;;;;;;;;;;;;;;;18.59;100.00;99380.94;5097341;28;20019;-63
2021/09/08 02:50:55;;;;;;;;;;;;;;;18.77;100.00;99376.38;5097653;28;19942;-63
2021/09/08 02:53:21;;;;;;;;;;;;;;;18.77;100.00;99379.88;5096337;28;20010;-62
2021/09/08 02:55:46;;;;;;;;;;;;;;;18.44;100.00;99376.59;5098367;28;19912;-63
2021/09/08 02:58:12;;;;;;;;;;;;;;;18.45;100.00;99375.66;5102585;28;19946;-62
2021/09/08 03:00:38;;;;;;;;;;;;;;;18.70;100.00;99372.44;5094635;28;19919;-60
2021/09/08 03:03:03;;;;;;;;;;;;;;;18.48;100.00;99372.88;5091536;28;19927;-62
2021/09/08 03:05:29;;;;;;;;;;;;;;;18.21;100.00;99376.16;5096625;28;19965;-62
2021/09/08 03:07:54;;;;;;;;;;;;;;;18.29;100.00;99375.72;5096312;28;19950;-62
2021/09/08 03:10:19;;;;;;;;;;;;;;;18.34;100.00;99371.91;5097639;28;19974;-62
2021/09/08 03:12:45;;;;;;;;;;;;;;;18.24;100.00;99373.38;5100864;28;19943;-61
2021/09/08 03:15:10;;;;;;;;;;;;;;;18.33;100.00;99370.22;5098324;28;19915;-61
2021/09/08 03:17:35;;;;;;;;;;;;;;;18.46;100.00;99372.97;5094525;28;19928;-63
2021/09/08 03:20:01;;;;;;;;;;;;;;;18.14;100.00;99369.63;5097260;28;19916;-63
2021/09/08 03:22:26;;;;;;;;;;;;;;;18.15;100.00;99368.69;5100334;28;19912;-60
2021/09/08 03:24:52;;;;;;;;;;;;;;;18.05;100.00;99375.34;5100600;28;19961;-62
2021/09/08 03:27:17;;;;;;;;;;;;;;;17.98;100.00;99370.50;5096731;28;20429;-62
2021/09/08 03:29:42;;;;;;;;;;;;;;;17.92;100.00;99378.66;5096167;28;19920;-61
2021/09/08 03:32:08;;;;;;;;;;;;;;;17.89;100.00;99381.44;5076548;28;19920;-61
2021/09/08 03:34:33;;;;;;;;;;;;;;;17.82;100.00;99381.88;5101934;28;20053;-60
2021/09/08 03:36:58;;;;;;;;;;;;;;;17.85;100.00;99374.69;5097829;28;20003;-60
2021/09/08 03:39:24;;;;;;;;;;;;;;;17.91;100.00;99369.16;5096216;28;19915;-61
2021/09/08 03:41:49;;;;;;;;;;;;;;;17.49;100.00;99375.81;5096701;28;19930;-62
2021/09/08 03:44:14;;;;;;;;;;;;;;;17.22;100.00;99375.53;5095010;28;19919;-61
2021/09/08 03:46:40;;;;;;;;;;;;;;;17.17;100.00;99380.09;5096685;28;19920;-63
2021/09/08 03:49:05;;;;;;;;;;;;;;;17.18;100.00;99375.78;5094474;28;19919;-62
2021/09/08 03:51:31;;;;;;;;;;;;;;;17.34;100.00;99379.22;5094463;28;19930;-62
2021/09/08 03:53:59;;;;;;;;;;;;;;;17.24;100.00;99372.81;5097550;28;20060;-59
2021/09/08 03:56:27;;;;;;;;;;;;;;;17.15;100.00;99368.94;5073778;28;19993;-63
2021/09/08 03:58:52;;;;;;;;;;;;;;;17.24;100.00;99368.47;5094930;28;19923;-62
2021/09/08 04:01:18;;;;;;;;;;;;;;;17.27;100.00;99367.47;5099700;28;19916;-60
2021/09/08 04:03:45;;;;;;;;;;;;;;;17.36;100.00;99372.19;5079883;28;20960;-61
2021/09/08 04:06:11;;;;;;;;;;;;;;;17.26;100.00;99363.16;5092724;28;19927;-63
2021/09/08 04:08:36;;;;;;;;;;;;;;;17.09;100.00;99357.09;5099288;28;19912;-60
2021/09/08 04:11:01;;;;;;;;;;;;;;;16.80;100.00;99357.78;5098654;28;19976;-60
2021/09/08 04:13:27;;;;;;;;;;;;;;;17.13;100.00;99355.19;5098754;28;19920;-60
2021/09/08 04:15:52;;;;;;;;;;;;;;;17.28;100.00;99359.56;5097410;28;20361;-62
2021/09/08 04:18:18;;;;;;;;;;;;;;;17.45;100.00;99355.22;5098300;28;20012;-60
2021/09/08 04:20:43;;;;;;;;;;;;;;;17.18;100.00;99360.16;5098501;28;19923;-62
2021/09/08 04:23:08;;;;;;;;;;;;;;;17.04;100.00;99360.88;5077040;28;19931;-62
2021/09/08 04:25:34;;;;;;;;;;;;;;;17.10;100.00;99361.38;5100255;28;19916;-63
2021/09/08 04:27:59;;;;;;;;;;;;;;;17.54;100.00;99359.94;5099502;28;20023;-62
2021/09/08 04:30:24;;;;;;;;;;;;;;;17.19;100.00;99359.22;5096264;28;20074;-62
2021/09/08 04:32:50;;;;;;;;;;;;;;;17.10;100.00;99355.34;5100456;28;19959;-60
2021/09/08 04:35:15;;;;;;;;;;;;;;;17.08;100.00;99352.84;5100650;28;20272;-62
2021/09/08 04:37:40;;;;;;;;;;;;;;;16.73;100.00;99355.47;5099646;28;19916;-61
2021/09/08 04:40:06;;;;;;;;;;;;;;;16.28;100.00;99351.72;5102603;28;19918;-64
2021/09/08 04:42:31;;;;;;;;;;;;;;;16.38;100.00;99346.06;5082136;28;19916;-63
2021/09/08 04:44:57;;;;;;;;;;;;;;;16.31;100.00;99346.34;5100460;28;19915;-61
2021/09/08 04:47:22;;;;;;;;;;;;;;;16.56;100.00;99344.25;5098655;28;19959;-60
2021/09/08 04:49:47;;;;;;;;;;;;;;;16.68;100.00;99349.66;5101574;28;19923;-62
2021/09/08 04:52:15;;;;;;;;;;;;;;;16.76;100.00;99338.88;5099665;28;19977;-62
2021/09/08 04:54:40;;;;;;;;;;;;;;;16.80;100.00;99337.00;5077088;28;19962;-61
2021/09/08 04:57:05;;;;;;;;;;;;;;;17.17;100.00;99346.28;5058960;28;19943;-63
2021/09/08 04:59:31;;;;;;;;;;;;;;;17.34;100.00;99340.19;5079003;28;20688;-62
2021/09/08 05:01:56;;;;;;;;;;;;;;;17.40;100.00;99341.59;5096825;28;19927;-60
2021/09/08 05:04:21;;;;;;;;;;;;;;;17.29;100.00;99339.59;5092780;28;19966;-62
2021/09/08 05:06:47;;;;;;;;;;;;;;;17.36;100.00;99335.72;5091435;28;19916;-60
2021/09/08 05:09:13;;;;;;;;;;;;;;;17.67;100.00;99344.44;5096396;28;19920;-62
2021/09/08 05:11:38;;;;;;;;;;;;;;;17.55;100.00;99335.56;5093252;28;19930;-63
2021/09/08 05:14:03;;;;;;;;;;;;;;;17.73;100.00;99331.09;5095936;28;20596;-63
2021/09/08 05:16:29;;;;;;;;;;;;;;;17.64;100.00;99334.22;5078716;28;20296;-62
2021/09/08 05:18:54;;;;;;;;;;;;;;;17.48;100.00;99329.00;5100148;28;19915;-63
2021/09/08 05:21:19;;;;;;;;;;;;;;;17.63;100.00;99329.91;5099828;28;20910;-62
2021/09/08 05:23:45;;;;;;;;;;;;;;;17.80;100.00;99324.59;5101360;28;19915;-62
2021/09/08 05:26:10;;;;;;;;;;;;;;;17.47;100.00;99325.56;5101849;28;20010;-62
2021/09/08 05:28:35;;;;;;;;;;;;;;;17.62;100.00;99330.84;5102833;28;19920;-62
2021/09/08 05:31:01;;;;;;;;;;;;;;;17.52;100.00;99322.72;5101765;28;19957;-62
2021/09/08 05:33:26;;;;;;;;;;;;;;;17.62;100.00;99330.84;5099490;28;20001;-59
2021/09/08 05:35:51;;;;;;;;;;;;;;;17.51;100.00;99329.66;5087468;28;19922;-61
2021/09/08 05:38:18;;;;;;;;;;;;;;;17.21;100.00;99331.34;5095865;28;20373;-60
2021/09/08 05:40:43;;;;;;;;;;;;;;;16.36;100.00;99338.31;5079456;28;19942;-60
2021/09/08 05:43:08;;;;;;;;;;;;;;;16.44;100.00;99337.91;5080999;28;19920;-63
2021/09/08 05:45:34;;;;;;;;;;;;;;;16.68;100.00;99338.44;5099177;28;19993;-62
2021/09/08 05:47:59;;;;;;;;;;;;;;;17.01;100.00;99333.25;5080270;28;20458;-62
2021/09/08 05:50:24;;;;;;;;;;;;;;;16.93;100.00;99338.03;5080386;28;20033;-64
2021/09/08 05:52:49;;;;;;;;;;;;;;;17.24;100.00;99336.38;5079181;28;19919;-61
2021/09/08 05:55:15;;;;;;;;;;;;;;;17.59;100.00;99334.47;5101466;28;19920;-60
2021/09/08 05:57:40;;;;;;;;;;;;;;;17.64;100.00;99331.59;5099634;28;19920;-63
2021/09/08 06:00:06;;;;;;;;;;;;;;;17.45;100.00;99337.00;5100775;28;19923;-62
2021/09/08 06:02:31;;;;;;;;;;;;;;;17.26;100.00;99334.53;5099150;28;19969;-63
2021/09/08 06:04:56;;;;;;;;;;;;;;;17.25;100.00;99338.06;5081691;28;19919;-62
2021/09/08 06:07:21;;;;;;;;;;;;;;;17.19;100.00;99333.19;5096421;28;20328;-62
2021/09/08 06:09:47;;;;;;;;;;;;;;;17.27;100.00;99341.44;5099330;28;20369;-62
2021/09/08 06:12:12;;;;;;;;;;;;;;;17.27;100.00;99346.66;5079250;28;19919;-62
2021/09/08 06:14:37;;;;;;;;;;;;;;;17.29;100.00;99350.84;5097430;28;20515;-63
2021/09/08 06:17:04;;;;;;;;;;;;;;;17.39;100.00;99339.94;5098341;28;19915;-63
2021/09/08 06:19:29;;;;;;;;;;;;;;;17.84;100.00;99336.56;5099053;28;19919;-63
2021/09/08 06:21:54;;;;;;;;;;;;;;;18.07;100.00;99342.25;5099755;28;20612;-62
2021/09/08 06:24:20;;;;;;;;;;;;;;;17.97;100.00;99347.97;5099728;28;19916;-64
2021/09/08 06:26:45;;;;;;;;;;;;;;;18.19;100.00;99346.72;5098519;28;19916;-63
2021/09/08 06:29:10;;;;;;;;;;;;;;;18.64;100.00;99333.69;5104490;28;19912;-61
2021/09/08 06:31:36;;;;;;;;;;;;;;;18.72;100.00;99334.06;5098846;28;20108;-62
2021/09/08 06:34:01;;;;;;;;;;;;;;;18.67;100.00;99336.94;5101196;28;19920;-62
2021/09/08 06:36:26;;;;;;;;;;;;;;;19.03;100.00;99330.47;5082460;28;19920;-61
2021/09/08 06:38:52;;;;;;;;;;;;;;;19.90;100.00;99334.56;5097773;28;20319;-62
2021/09/08 06:41:17;;;;;;;;;;;;;;;19.55;100.00;99334.19;5077954;28;20424;-62
2021/09/08 06:43:42;;;;;;;;;;;;;;;19.61;100.00;99332.03;5097893;28;19926;-61
2021/09/08 06:46:15;;;;;;;;;;;;;;;19.92;100.00;99327.44;5091814;28;19927;-60
2021/09/08 06:48:50;;;;;;;;;;;;;;;20.35;100.00;99319.38;5097097;28;20088;-63
2021/09/08 06:51:16;;;;;;;;;;;;;;;20.18;100.00;99323.09;5094054;28;19991;-62
2021/09/08 06:53:41;;;;;;;;;;;;;;;20.32;100.00;99323.97;5075697;28;19920;-63
2021/09/08 06:56:07;;;;;;;;;;;;;;;20.83;100.00;99324.84;5064798;28;19912;-63
2021/09/08 06:58:32;;;;;;;;;;;;;;;21.31;100.00;99324.97;5075823;28;19919;-64
2021/09/08 07:00:58;;;;;;;;;;;;;;;21.31;100.00;99324.13;5063601;28;19998;-64
2021/09/08 07:03:23;;;;;;;;;;;;;;;21.20;100.00;99322.28;5076796;28;19919;-62
2021/09/08 07:05:48;;;;;;;;;;;;;;;21.20;100.00;99319.66;5066708;28;20016;-63
2021/09/08 07:08:15;;;;;;;;;;;;;;;21.97;100.00;99322.00;5065436;28;19915;-62
2021/09/08 07:10:41;;;;;;;;;;;;;;;21.59;100.00;99317.75;5078375;28;20030;-63
2021/09/08 07:13:06;;;;;;;;;;;;;;;22.12;100.00;99310.38;5064691;28;20015;-63
2021/09/08 07:15:33;;;;;;;;;;;;;;;22.48;100.00;99311.16;5080348;28;19916;-61
2021/09/08 07:17:59;;;;;;;;;;;;;;;22.55;100.00;99315.00;5079761;28;19920;-63
2021/09/08 07:20:24;;;;;;;;;;;;;;;22.33;100.00;99312.34;5065431;28;19938;-62
2021/09/08 07:22:50;;;;;;;;;;;;;;;22.75;100.00;99312.63;5083312;28;19916;-61
2021/09/08 07:25:15;;;;;;;;;;;;;;;23.52;100.00;99314.50;5063547;28;20007;-60
2021/09/08 07:27:40;;;;;;;;;;;;;;;23.83;100.00;99312.00;5065256;28;20598;-59
2021/09/08 07:30:06;;;;;;;;;;;;;;;22.92;100.00;99313.94;5079743;28;19911;-61
2021/09/08 07:32:32;;;;;;;;;;;;;;;23.17;100.00;99307.63;5081793;28;19920;-63
2021/09/08 07:35:00;;;;;;;;;;;;;;;23.67;100.00;99318.47;5073216;28;19919;-60
2021/09/08 07:37:26;;;;;;;;;;;;;;;24.34;100.00;99313.91;5064926;28;19919;-63
2021/09/08 07:39:51;;;;;;;;;;;;;;;24.07;100.00;99307.34;5078739;28;19912;-63
2021/09/08 07:42:23;;;;;;;;;;;;;;;23.90;100.00;99315.81;5101440;28;19923;-61
2021/09/08 07:44:49;;;;;;;;;;;;;;;23.33;100.00;99313.34;5063782;28;19920;-60
2021/09/08 07:47:14;;;;;;;;;;;;;;;22.63;100.00;99318.84;5067969;28;19916;-61
2021/09/08 07:49:40;;;;;;;;;;;;;;;24.11;100.00;99319.31;5071599;28;19912;-61
2021/09/08 07:52:05;;;;;;;;;;;;;;;23.66;100.00;99314.19;5065744;28;20612;-63
2021/09/08 07:54:30;;;;;;;;;;;;;;;24.01;100.00;99313.94;5082824;28;20024;-62
2021/09/08 07:56:56;;;;;;;;;;;;;;;24.94;100.00;99306.19;5104390;28;20024;-60
2021/09/08 07:59:21;;;;;;;;;;;;;;;24.70;100.00;99307.34;5105720;28;19916;-63
2021/09/08 08:01:47;;;;;;;;;;;;;;;24.94;100.00;99299.09;5110667;28;19912;-62
2021/09/08 08:04:12;;;;;;;;;;;;;;;25.04;100.00;99301.78;5105452;28;19916;-63
2021/09/08 08:06:38;;;;;;;;;;;;;;;25.44;100.00;99304.41;5100478;28;20031;-63
2021/09/08 08:09:04;;;;;;;;;;;;;;;25.17;100.00;99296.25;5082168;28;19912;-64
2021/09/08 08:11:29;;;;;;;;;;;;;;;24.73;100.00;99293.91;5104045;28;19931;-63
2021/09/08 08:13:54;;;;;;;;;;;;;;;25.13;100.00;99294.88;5107215;28;19967;-60
2021/09/08 08:16:19;;;;;;;;;;;;;;;25.60;100.00;99303.03;5105110;28;19919;-63
2021/09/08 08:18:45;;;;;;;;;;;;;;;25.57;100.00;99303.31;5102250;28;19924;-62
2021/09/08 08:21:10;;;;;;;;;;;;;;;25.95;100.00;99293.75;5109393;28;19912;-63
2021/09/08 08:23:36;;;;;;;;;;;;;;;26.40;100.00;99295.75;5103228;28;19915;-64
2021/09/08 08:26:01;;;;;;;;;;;;;;;26.54;100.00;99292.66;5105189;28;19915;-63
2021/09/08 08:28:26;;;;;;;;;;;;;;;26.47;100.00;99286.28;5104761;28;19912;-62
2021/09/08 08:30:52;;;;;;;;;;;;;;;26.71;100.00;99288.47;5105254;28;20002;-60
2021/09/08 08:33:17;;;;;;;;;;;;;;;27.43;97.77;99300.03;5100627;28;19919;-63
2021/09/08 08:35:43;;;;;;;;;;;;;;;27.60;96.33;99292.25;5096276;28;19934;-63
2021/09/08 08:38:08;;;;;;;;;;;;;;;28.03;97.59;99291.53;5098845;28;20474;-60
2021/09/08 08:40:34;;;;;;;;;;;;;;;27.68;92.77;99287.06;5100147;28;19931;-64
2021/09/08 08:42:59;;;;;;;;;;;;;;;28.47;95.87;99291.50;5062702;28;19924;-61
2021/09/08 08:45:25;;;;;;;;;;;;;;;28.12;95.32;99287.09;5098893;28;19931;-63
2021/09/08 08:47:50;;;;;;;;;;;;;;;28.16;94.67;99281.34;5098579;28;20019;-63
2021/09/08 08:50:16;;;;;;;;;;;;;;;28.51;90.14;99284.06;5080413;28;19924;-62
2021/09/08 08:52:41;;;;;;;;;;;;;;;27.90;93.16;99283.16;5100028;28;19912;-63
2021/09/08 08:55:08;;;;;;;;;;;;;;;28.34;89.27;99277.81;5101264;28;19929;-61
2021/09/08 08:57:36;;;;;;;;;;;;;;;28.32;92.56;99280.63;5101440;28;19930;-60
2021/09/08 09:00:02;;;;;;;;;;;;;;;29.11;92.17;99280.56;5080931;28;19916;-62
2021/09/08 09:02:29;;;;;;;;;;;;;;;28.92;95.25;99281.59;5099316;28;19910;-60
2021/09/08 09:04:55;;;;;;;;;;;;;;;29.14;87.55;99280.22;5083004;28;19927;-63
2021/09/08 09:07:21;;;;;;;;;;;;;;;28.89;83.77;99276.63;5099901;28;19923;-63
2021/09/08 09:09:57;;;;;;;;;;;;;;;29.18;85.57;99271.78;5100625;28;20041;-64
2021/09/08 09:12:28;;;;;;;;;;;;;;;28.88;81.30;99267.03;5080681;28;19969;-63
2021/09/08 09:14:58;;;;;;;;;;;;;;;29.49;81.07;99271.19;5081311;28;19942;-63
2021/09/08 09:17:23;;;;;;;;;;;;;;;29.80;75.37;99270.56;5100506;28;19950;-61
2021/09/08 09:19:49;;;;;;;;;;;;;;;29.70;80.65;99265.44;5104113;28;19955;-60
2021/09/08 09:22:17;;;;;;;;;;;;;;;30.03;84.05;99263.56;5101509;28;20366;-62
2021/09/08 09:24:43;;;;;;;;;;;;;;;29.81;78.10;99269.59;5100142;28;19920;-63
2021/09/08 09:27:12;;;;;;;;;;;;;;;29.24;84.53;99264.16;5103363;28;19994;-61
2021/09/08 09:29:43;;;;;;;;;;;;;;;29.22;76.93;99258.19;5098847;28;20446;-62
2021/09/08 09:32:11;;;;;;;;;;;;;;;29.53;83.18;99253.91;5098917;28;19924;-62
2021/09/08 09:34:37;;;;;;;;;;;;;;;30.06;78.41;99253.59;5097611;28;20335;-63
2021/09/08 09:37:02;;;;;;;;;;;;;;;30.56;84.20;99249.84;5095495;28;19912;-61
2021/09/08 09:39:32;;;;;;;;;;;;;;;30.38;79.37;99242.09;5075983;28;20000;-61
2021/09/08 09:42:01;;;;;;;;;;;;;;;30.12;78.68;99240.47;5079488;28;19916;-61
2021/09/08 09:44:30;;;;;;;;;;;;;;;30.34;77.65;99241.63;5096837;28;19919;-61
2021/09/08 09:46:55;;;;;;;;;;;;;;;30.69;82.66;99239.50;5079417;28;19924;-65
2021/09/08 09:49:20;;;;;;;;;;;;;;;30.30;82.52;99232.34;5098168;28;19916;-61
2021/09/08 09:51:46;;;;;;;;;;;;;;;30.78;80.09;99232.31;5101332;28;20278;-62
2021/09/08 09:54:11;;;;;;;;;;;;;;;31.55;67.21;99232.41;5083197;28;19955;-63
2021/09/08 09:56:37;;;;;;;;;;;;;;;31.82;75.67;99222.19;5103306;28;20013;-62
2021/09/08 09:59:02;;;;;;;;;;;;;;;31.03;60.83;99225.06;5101880;28;19962;-62
2021/09/08 10:01:28;;;;;;;;;;;;;;;31.76;68.41;99220.25;5100584;28;19912;-63
2021/09/08 10:03:53;;;;;;;;;;;;;;;31.52;71.27;99222.13;5084800;28;19926;-63
2021/09/08 10:06:19;;;;;;;;;;;;;;;31.99;74.06;99213.03;5077419;28;20000;-64
2021/09/08 10:08:48;;;;;;;;;;;;;;;32.38;67.53;99214.59;5098957;28;19912;-64
2021/09/08 10:11:15;;;;;;;;;;;;;;;31.79;58.85;99217.19;5098900;28;19972;-62
2021/09/08 10:13:42;;;;;;;;;;;;;;;32.17;65.43;99211.88;5081548;28;19911;-61
2021/09/08 10:16:07;;;;;;;;;;;;;;;31.80;60.27;99203.72;5097363;28;20012;-64
2021/09/08 10:18:33;;;;;;;;;;;;;;;32.37;72.78;99210.31;5098266;28;19919;-63
2021/09/08 10:21:08;;;;;;;;;;;;;;;31.85;66.61;99198.66;5097703;28;19921;-62
2021/09/08 10:23:40;;;;;;;;;;;;;;;33.09;75.49;99200.72;5079802;28;20261;-63
2021/09/08 10:26:13;;;;;;;;;;;;;;;32.12;62.77;99187.63;5098421;28;19916;-62
2021/09/08 10:28:38;;;;;;;;;;;;;;;32.43;65.82;99185.59;5081936;28;20380;-63
2021/09/08 10:31:04;;;;;;;;;;;;;;;30.88;55.44;99181.59;5099218;28;19920;-62
2021/09/08 10:33:29;;;;;;;;;;;;;;;31.62;68.80;99180.06;5098555;28;19934;-63
2021/09/08 10:35:55;;;;;;;;;;;;;;;31.91;57.18;99180.28;5079624;28;19920;-63
2021/09/08 10:38:25;;;;;;;;;;;;;;;30.35;61.99;99174.19;5081262;28;20458;-61
2021/09/08 10:40:50;;;;;;;;;;;;;;;32.71;63.93;99182.25;5084862;28;20397;-61
2021/09/08 10:43:16;;;;;;;;;;;;;;;33.46;61.61;99180.13;5081931;28;19953;-64
2021/09/08 10:45:52;;;;;;;;;;;;;;;30.62;55.41;99174.75;5065109;28;20353;-61
2021/09/08 10:48:33;;;;;;;;;;;;;;;31.05;55.77;99164.56;5080955;28;19997;-62
2021/09/08 10:50:59;;;;;;;;;;;;;;;32.59;68.40;99170.41;5078608;28;19920;-61
2021/09/08 10:53:24;;;;;;;;;;;;;;;32.02;75.16;99162.06;5079381;28;19919;-63
2021/09/08 10:55:50;;;;;;;;;;;;;;;31.55;67.25;99154.38;5101478;28;19915;-63
2021/09/08 10:58:15;;;;;;;;;;;;;;;31.51;66.94;99153.06;5080542;28;19919;-64
2021/09/08 11:00:43;;;;;;;;;;;;;;;31.50;72.12;99149.59;5080936;28;19916;-63
2021/09/08 11:03:14;;;;;;;;;;;;;;;34.10;72.62;99145.28;5098287;28;20433;-60
2021/09/08 11:05:46;;;;;;;;;;;;;;;34.44;50.46;99140.06;5102071;28;19916;-63
2021/09/08 11:08:19;;;;;;;;;;;;;;;30.40;61.80;99139.13;5098580;28;19919;-63
2021/09/08 11:10:44;;;;;;;;;;;;;;;30.72;64.95;99138.13;5097977;28;19997;-62
2021/09/08 11:13:09;;;;;;;;;;;;;;;29.46;74.01;99133.50;5097928;28;19936;-63
2021/09/08 11:15:35;;;;;;;;;;;;;;;29.26;68.50;99138.31;5080299;28;19951;-61
2021/09/08 11:18:08;;;;;;;;;;;;;;;31.42;76.32;99139.00;5080090;28;19912;-61
2021/09/08 11:20:33;;;;;;;;;;;;;;;29.77;59.61;99130.19;5090643;28;19920;-61
2021/09/08 11:22:59;;;;;;;;;;;;;;;30.63;66.29;99139.16;5081978;28;20159;-62
2021/09/08 11:25:27;;;;;;;;;;;;;;;29.80;61.18;99137.81;5079122;28;20281;-63
2021/09/08 11:27:53;;;;;;;;;;;;;;;30.70;72.06;99129.50;5083685;28;19969;-63
2021/09/08 11:30:18;;;;;;;;;;;;;;;32.37;66.97;99133.00;5069504;28;19924;-63
2021/09/08 11:32:50;;;;;;;;;;;;;;;31.30;65.45;99127.13;5068328;28;19928;-62
2021/09/08 11:35:30;;;;;;;;;;;;;;;30.06;70.25;99131.44;5101487;28;19925;-63
2021/09/08 11:37:56;;;;;;;;;;;;;;;30.11;72.64;99123.81;5066400;28;20380;-60
2021/09/08 11:40:21;;;;;;;;;;;;;;;31.19;67.03;99129.19;5103046;28;20001;-64
2021/09/08 11:42:46;;;;;;;;;;;;;;;32.69;57.67;99122.94;5101072;28;20020;-63
2021/09/08 11:45:12;;;;;;;;;;;;;;;30.55;66.77;99124.09;5100081;28;19924;-63
2021/09/08 11:47:45;;;;;;;;;;;;;;;31.74;72.51;99118.41;5085156;28;19938;-61
2021/09/08 11:50:10;;;;;;;;;;;;;;;31.97;52.64;99119.16;5083974;28;19924;-60
2021/09/08 11:52:38;;;;;;;;;;;;;;;30.76;64.59;99117.34;5102751;28;20412;-61
2021/09/08 11:55:04;;;;;;;;;;;;;;;29.95;68.69;99111.41;5100410;28;19920;-61
2021/09/08 11:57:29;;;;;;;;;;;;;;;29.88;66.26;99110.41;5084261;28;19919;-63
2021/09/08 11:59:55;;;;;;;;;;;;;;;28.97;69.18;99113.09;5101370;28;19927;-62
2021/09/08 12:02:20;;;;;;;;;;;;;;;28.57;77.00;99111.22;5100807;28;19938;-62
2021/09/08 12:04:45;;;;;;;;;;;;;;;28.71;78.20;99112.41;5100372;28;19915;-62
2021/09/08 12:07:11;;;;;;;;;;;;;;;30.37;65.39;99107.59;5102498;28;19916;-61
2021/09/08 12:09:45;;;;;;;;;;;;;;;32.72;61.99;99104.69;5098307;28;20416;-63
2021/09/08 12:12:11;;;;;;;;;;;;;;;31.53;62.45;99098.63;5069961;28;19966;-63
2021/09/08 12:14:43;;;;;;;;;;;;;;;30.38;58.54;99101.25;5097872;28;19969;-61
2021/09/08 12:17:08;;;;;;;;;;;;;;;32.19;58.24;99092.59;5083709;28;19945;-63
2021/09/08 12:19:34;;;;;;;;;;;;;;;31.91;65.76;99089.72;5102163;28;20284;-63
2021/09/08 12:22:03;;;;;;;;;;;;;;;33.09;70.83;99083.31;5082253;28;20300;-63
2021/09/08 12:24:29;;;;;;;;;;;;;;;32.95;48.17;99086.88;5082805;28;20022;-63
2021/09/08 12:26:55;;;;;;;;;;;;;;;32.25;47.88;99089.16;5099416;28;19966;-62
2021/09/08 12:29:20;;;;;;;;;;;;;;;30.26;56.93;99084.03;5097703;28;19920;-62
2021/09/08 12:31:49;;;;;;;;;;;;;;;31.42;58.95;99081.28;5100777;28;19923;-63
2021/09/08 12:34:14;;;;;;;;;;;;;;;30.61;59.17;99077.41;5100623;28;19920;-63